S/y Squall — ZCIF2 — position and weather

sailwx.info

Track history (hours):
 
Tides and Currents Weather Stations Pressure Air Temp Water Temp Dewpoint Dewpoint Depression Visibility Wind Speed Wind Dir Waves Ship Positions

S/y Squall

Last reported at 2015-Jul-31 06:16 UTC. Time now 2015-Jul-31 15:29 UTC.
Position N 37°17' E 026°34'.

Length 52 m; draft 5.2 m.

Type: Sailing vessel. MMSI: 319811000.

Date/timePositionNaut miles runAvg speedWind from/ knotsBaromVisibWave heightAir tempDewpointWater temp
2015-Jul-31 06:16N 37°17' E 026°34'7 9.2
2015-Jul-31 05:33N 37°17' E 026°42'4 0.5
2015-Jul-30 21:09N 37°17' E 026°47'0 0.0
2015-Jul-30 13:30N 37°17' E 026°47'0 0.0
2015-Jul-29 16:15N 37°17' E 026°47'0 0.0
2015-Jul-29 15:15N 37°17' E 026°47'0 0.0
2015-Jul-29 14:32N 37°17' E 026°47'12 9.7
2015-Jul-29 13:19N 37°08' E 026°57'1411.4
2015-Jul-29 12:03N 36°59' E 027°11'710.2
2015-Jul-29 11:24N 36°54' E 027°17'0 0.0
2015-Jul-29 06:31N 36°54' E 027°17'0 0.0
2015-Jul-29 03:31N 36°54' E 027°17'0 0.0
2015-Jul-29 02:25N 36°54' E 027°17'0 0.0
2015-Jul-29 01:28N 36°54' E 027°17'0 0.0
2015-Jul-29 00:31N 36°54' E 027°17'0 0.0
2015-Jul-28 23:22N 36°54' E 027°17'0 0.0
2015-Jul-28 22:34N 36°54' E 027°17'0 0.0
2015-Jul-28 15:19N 36°54' E 027°17'0 0.0
2015-Jul-28 14:31N 36°54' E 027°17'0 0.0
2015-Jul-28 12:31N 36°54' E 027°17'0 0.0
2015-Jul-28 03:33N 36°54' E 027°17'0 0.0
2015-Jul-28 02:33N 36°54' E 027°17'0 0.0
2015-Jul-28 00:33N 36°54' E 027°17'0 0.0
2015-Jul-27 23:27N 36°54' E 027°17'0 0.0
2015-Jul-27 22:31N 36°54' E 027°17'0 0.0
2015-Jul-27 21:33N 36°54' E 027°17'0 0.0
2015-Jul-27 16:25N 36°54' E 027°17'0 0.0
2015-Jul-27 14:10N 36°54' E 027°17'0 0.0
2015-Jul-27 13:24N 36°54' E 027°17'0 0.0
2015-Jul-27 00:27N 36°54' E 027°17'0 0.0
2015-Jul-26 23:33N 36°54' E 027°17'0 0.0
2015-Jul-26 22:33N 36°54' E 027°17'0 0.0
2015-Jul-26 21:33N 36°54' E 027°17'0 0.0
2015-Jul-26 20:12N 36°54' E 027°17'0 0.0
2015-Jul-26 15:30N 36°54' E 027°17'2 2.0
2015-Jul-26 14:31N 36°56' E 027°19'2 1.7
2015-Jul-26 13:33N 36°55' E 027°18'0 0.1
2015-Jul-26 12:33N 36°55' E 027°17'0 0.0
2015-Jul-26 11:33N 36°55' E 027°17'0 0.0
2015-Jul-26 10:33N 36°55' E 027°17'0 0.0
2015-Jul-26 09:33N 36°55' E 027°17'0 0.0
2015-Jul-26 08:13N 36°55' E 027°17'15 8.7
2015-Jul-26 06:33N 37°04' E 027°03'1110.0
2015-Jul-26 05:29N 37°11' E 026°53'8 8.0
2015-Jul-26 04:31N 37°17' E 026°47'  
2015-Jul-22 16:04N 37°10' E 026°51'16 0.5
2015-Jul-21 08:10N 37°17' E 026°33'2 3.8
2015-Jul-21 07:32N 37°19' E 026°34'  
Track history (hours):
 
Tides and Currents Weather Stations Pressure Air Temp Water Temp Dewpoint Dewpoint Depression Visibility Wind Speed Wind Dir Waves Ship Positions

S/y Squall

Last reported at 2015-Jul-31 06:16 UTC. Time now 2015-Jul-31 15:29 UTC.
Position N 37°17' E 026°34'.

Length 52 m; draft 5.2 m.

Type: Sailing vessel. MMSI: 319811000.

Date/timePositionNaut miles runAvg speedWind from/ knotsBaromVisibWave heightAir tempDewpointWater temp
2015-Jul-31 06:16N 37°17' E 026°34'7 9.2
2015-Jul-31 05:33N 37°17' E 026°42'4 0.5
2015-Jul-30 21:09N 37°17' E 026°47'0 0.0
2015-Jul-30 13:30N 37°17' E 026°47'0 0.0
2015-Jul-29 16:15N 37°17' E 026°47'0 0.0
2015-Jul-29 15:15N 37°17' E 026°47'0 0.0
2015-Jul-29 14:32N 37°17' E 026°47'12 9.7
2015-Jul-29 13:19N 37°08' E 026°57'1411.4
2015-Jul-29 12:03N 36°59' E 027°11'710.2
2015-Jul-29 11:24N 36°54' E 027°17'0 0.0
2015-Jul-29 06:31N 36°54' E 027°17'0 0.0
2015-Jul-29 03:31N 36°54' E 027°17'0 0.0
2015-Jul-29 02:25N 36°54' E 027°17'0 0.0
2015-Jul-29 01:28N 36°54' E 027°17'0 0.0
2015-Jul-29 00:31N 36°54' E 027°17'0 0.0
2015-Jul-28 23:22N 36°54' E 027°17'0 0.0
2015-Jul-28 22:34N 36°54' E 027°17'0 0.0
2015-Jul-28 15:19N 36°54' E 027°17'0 0.0
2015-Jul-28 14:31N 36°54' E 027°17'0 0.0
2015-Jul-28 12:31N 36°54' E 027°17'0 0.0
2015-Jul-28 03:33N 36°54' E 027°17'0 0.0
2015-Jul-28 02:33N 36°54' E 027°17'0 0.0
2015-Jul-28 00:33N 36°54' E 027°17'0 0.0
2015-Jul-27 23:27N 36°54' E 027°17'0 0.0
2015-Jul-27 22:31N 36°54' E 027°17'0 0.0
2015-Jul-27 21:33N 36°54' E 027°17'0 0.0
2015-Jul-27 16:25N 36°54' E 027°17'0 0.0
2015-Jul-27 14:10N 36°54' E 027°17'0 0.0
2015-Jul-27 13:24N 36°54' E 027°17'0 0.0
2015-Jul-27 00:27N 36°54' E 027°17'0 0.0
2015-Jul-26 23:33N 36°54' E 027°17'0 0.0
2015-Jul-26 22:33N 36°54' E 027°17'0 0.0
2015-Jul-26 21:33N 36°54' E 027°17'0 0.0
2015-Jul-26 20:12N 36°54' E 027°17'0 0.0
2015-Jul-26 15:30N 36°54' E 027°17'2 2.0
2015-Jul-26 14:31N 36°56' E 027°19'2 1.7
2015-Jul-26 13:33N 36°55' E 027°18'0 0.1
2015-Jul-26 12:33N 36°55' E 027°17'0 0.0
2015-Jul-26 11:33N 36°55' E 027°17'0 0.0
2015-Jul-26 10:33N 36°55' E 027°17'0 0.0
2015-Jul-26 09:33N 36°55' E 027°17'0 0.0
2015-Jul-26 08:13N 36°55' E 027°17'15 8.7
2015-Jul-26 06:33N 37°04' E 027°03'1110.0
2015-Jul-26 05:29N 37°11' E 026°53'8 8.0
2015-Jul-26 04:31N 37°17' E 026°47'  
2015-Jul-22 16:04N 37°10' E 026°51'16 0.5
2015-Jul-21 08:10N 37°17' E 026°33'2 3.8
2015-Jul-21 07:32N 37°19' E 026°34'  

Dump ship's entire track history